»·PEaware :: AAL688 KSFO-KSEA

AAL688 :: KSFO-KSEA

FLIGHT INFORMATION

Flight Status: Arrived
Operator:
American Airlines
More flights by this operator :: More flights under this callsign
Pilot: Anonymous 14085 (14085)
Aircraft: MCDONNELL-DOUGLAS MD-88
(MD88)
More flights by this aircraft type
Origin: KSFO San Francisco Intl
United States
Destination: KSEA Seattle-Tacoma Intl
United States
More flights between these airports :: More routes between these airports
Route: +TRUKN2 DEDHD BTG HAWKS5
File this flight plan on PilotEdge
Remarks:
Altitude:
(Current/Filed)
35,000ft
Speed:
(Current/Filed)
450kts
Departed: 27-Jan-17 10:20 PM
Arrived: 28-Jan-17 12:02 AM
Distance/Time
Traveled:
590nm/1:42
Distance/Time
To Go:
Arrived

Flight Plot

Page will automatically refresh every two minutes.


Map Options




Map Legend


Flown Route
Filed Route
Departure Airport
Arrival Airport
Navaid (VOR, NDB)
Fix

Horizontal Profiles

Position Reports

Time Latitude Longitude Heading Altitude Ground
Speed
27-Jan-17 22:06 37.617871 -122.380556 257 19ft 0kts
27-Jan-17 22:07 37.617871 -122.380556 257 19ft 0kts
27-Jan-17 22:08 37.617871 -122.380556 257 19ft 0kts
27-Jan-17 22:09 37.617871 -122.380556 257 19ft 0kts
27-Jan-17 22:10 37.617871 -122.380556 257 19ft 0kts
27-Jan-17 22:11 37.617874 -122.380538 257 19ft 1kts
27-Jan-17 22:12 37.617885 -122.379447 207 19ft 0kts
27-Jan-17 22:13 37.615857 -122.380162 211 19ft 16kts
27-Jan-17 22:14 37.610710 -122.383565 211 19ft 25kts
27-Jan-17 22:15 37.608581 -122.384121 118 19ft 0kts
27-Jan-17 22:16 37.608581 -122.384121 118 19ft 0kts
27-Jan-17 22:17 37.608427 -122.383773 118 19ft 10kts
27-Jan-17 22:18 37.608992 -122.382207 27 19ft 0kts
27-Jan-17 22:19 37.608992 -122.382207 27 19ft 0kts
27-Jan-17 22:20 37.612292 -122.380026 27 19ft 94kts
27-Jan-17 22:21 37.651116 -122.352168 28 1699ft 217kts
27-Jan-17 22:22 37.704250 -122.310175 31 6317ft 211kts
27-Jan-17 22:23 37.740538 -122.269502 10 9930ft 173kts
27-Jan-17 22:24 37.788697 -122.254249 13 12324ft 179kts
27-Jan-17 22:25 37.831535 -122.218558 35 14069ft 192kts
27-Jan-17 22:26 37.887357 -122.190401 11 15008ft 258kts
27-Jan-17 22:27 37.969714 -122.173430 7 15665ft 340kts
27-Jan-17 22:28 38.065592 -122.157371 6 18178ft 352kts
27-Jan-17 22:29 38.163908 -122.141125 6 20548ft 362kts
27-Jan-17 22:30 38.264686 -122.124436 6 22715ft 372kts
27-Jan-17 22:31 38.368181 -122.114816 357 24696ft 380kts
27-Jan-17 22:32 38.463896 -122.120061 357 26365ft 388kts
27-Jan-17 22:33 38.570811 -122.126240 357 28060ft 397kts
27-Jan-17 22:34 38.682054 -122.132694 356 29651ft 405kts
27-Jan-17 22:35 38.794800 -122.139260 356 31413ft 404kts
27-Jan-17 22:36 38.905615 -122.145731 356 33228ft 398kts
27-Jan-17 22:37 39.015819 -122.152188 356 34675ft 397kts
27-Jan-17 22:38 39.126311 -122.158687 356 35636ft 398kts
27-Jan-17 22:39 39.236331 -122.165168 356 35544ft 397kts
27-Jan-17 22:40 39.344152 -122.171565 356 36587ft 385kts
27-Jan-17 22:41 39.453309 -122.178035 356 36635ft 397kts
27-Jan-17 22:42 39.561274 -122.184467 356 36639ft 396kts
27-Jan-17 22:43 39.670836 -122.191011 356 36639ft 396kts
27-Jan-17 22:44 39.780734 -122.197602 356 36636ft 396kts
27-Jan-17 22:45 39.890126 -122.204167 356 36625ft 396kts
27-Jan-17 22:46 39.999770 -122.210782 356 36598ft 396kts
27-Jan-17 22:47 40.109807 -122.217446 356 36594ft 396kts
27-Jan-17 22:48 40.219137 -122.224082 356 36591ft 396kts
27-Jan-17 22:49 40.328858 -122.230758 356 36586ft 396kts
27-Jan-17 22:50 40.438770 -122.237470 356 36576ft 396kts
27-Jan-17 22:51 40.548287 -122.244181 356 36571ft 396kts
27-Jan-17 22:52 40.640722 -122.249864 356 36598ft 396kts
27-Jan-17 22:53 40.750054 -122.256606 356 36597ft 396kts
27-Jan-17 22:54 40.859883 -122.263403 356 36596ft 396kts
27-Jan-17 22:55 40.969790 -122.270232 356 36595ft 396kts
27-Jan-17 22:56 41.080164 -122.277052 355 36592ft 401kts
27-Jan-17 22:57 41.191800 -122.284068 354 36625ft 403kts
27-Jan-17 22:58 41.303491 -122.291076 354 36684ft 403kts
27-Jan-17 22:59 41.415503 -122.298136 355 36687ft 409kts
27-Jan-17 23:00 41.528975 -122.305289 355 36682ft 409kts
27-Jan-17 23:01 41.640537 -122.312360 354 36689ft 409kts
27-Jan-17 23:02 41.753827 -122.319565 355 36691ft 409kts
27-Jan-17 23:03 41.866786 -122.326771 355 36688ft 409kts
27-Jan-17 23:04 41.980035 -122.334014 354 36687ft 409kts
27-Jan-17 23:05 42.093368 -122.341295 354 36685ft 409kts
27-Jan-17 23:06 42.206566 -122.348605 355 36679ft 409kts
27-Jan-17 23:07 42.320098 -122.355949 355 36660ft 408kts
27-Jan-17 23:08 42.431141 -122.363161 354 36632ft 409kts
27-Jan-17 23:09 42.546215 -122.370667 354 36629ft 409kts
27-Jan-17 23:10 42.657533 -122.377950 355 36637ft 409kts
27-Jan-17 23:11 42.771202 -122.385410 354 36632ft 409kts
27-Jan-17 23:12 42.883893 -122.392839 355 36634ft 409kts
27-Jan-17 23:13 42.995722 -122.400169 353 36635ft 421kts
27-Jan-17 23:14 43.114361 -122.408108 353 36630ft 425kts
27-Jan-17 23:15 43.232439 -122.415986 353 36629ft 425kts
27-Jan-17 23:16 43.352159 -122.423991 353 36622ft 425kts
27-Jan-17 23:17 43.467473 -122.431743 353 36620ft 425kts
27-Jan-17 23:18 43.584600 -122.439636 353 36635ft 425kts
27-Jan-17 23:19 43.702440 -122.447618 353 36659ft 425kts
27-Jan-17 23:20 43.821567 -122.455714 353 36660ft 425kts
27-Jan-17 23:21 43.939011 -122.463725 353 36659ft 424kts
27-Jan-17 23:22 44.057763 -122.471865 353 36659ft 431kts
27-Jan-17 23:23 44.176727 -122.480046 353 36657ft 430kts
27-Jan-17 23:24 44.296001 -122.488287 353 36656ft 430kts
27-Jan-17 23:25 44.415431 -122.496561 353 36648ft 430kts
27-Jan-17 23:26 44.534553 -122.504858 353 36636ft 430kts
27-Jan-17 23:27 44.647813 -122.512779 353 36642ft 430kts
27-Jan-17 23:28 44.766775 -122.521124 353 36647ft 430kts
27-Jan-17 23:29 44.886002 -122.529523 353 36653ft 430kts
27-Jan-17 23:30 45.005330 -122.538001 353 36658ft 432kts
27-Jan-17 23:31 45.125900 -122.546603 352 36658ft 439kts
27-Jan-17 23:32 45.247735 -122.555341 352 36657ft 439kts
27-Jan-17 23:33 45.369355 -122.564083 352 36656ft 434kts
27-Jan-17 23:34 45.486092 -122.572522 352 36663ft 421kts
27-Jan-17 23:35 45.601683 -122.580913 352 36167ft 429kts
27-Jan-17 23:36 45.727058 -122.590052 352 32407ft 454kts
27-Jan-17 23:37 45.846685 -122.616043 346 28613ft 427kts
27-Jan-17 23:38 45.960050 -122.644106 346 26590ft 409kts
27-Jan-17 23:39 46.070454 -122.671573 346 25094ft 399kts
27-Jan-17 23:40 46.179474 -122.694400 348 24650ft 398kts
27-Jan-17 23:41 46.289095 -122.716128 348 24646ft 398kts
27-Jan-17 23:42 46.400862 -122.720092 14 22089ft 405kts
27-Jan-17 23:43 46.483157 -122.626210 7 20388ft 372kts
27-Jan-17 23:44 46.570747 -122.679759 336 17338ft 367kts
27-Jan-17 23:45 46.670127 -122.712186 348 14586ft 366kts
27-Jan-17 23:46 46.768439 -122.733006 4 12519ft 345kts
27-Jan-17 23:47 46.843932 -122.667745 35 12019ft 342kts
27-Jan-17 23:48 46.925210 -122.576434 35 11990ft 380kts
27-Jan-17 23:49 47.023376 -122.524837 13 11989ft 379kts
27-Jan-17 23:50 47.109006 -122.495202 3 11992ft 376kts
27-Jan-17 23:51 47.210639 -122.476942 2 10457ft 332kts
27-Jan-17 23:52 47.290710 -122.464725 2 9405ft 271kts
27-Jan-17 23:53 47.362744 -122.455190 357 8360ft 269kts
27-Jan-17 23:54 47.435659 -122.451809 2 6899ft 256kts
27-Jan-17 23:55 47.500954 -122.446021 2 5738ft 213kts
27-Jan-17 23:56 47.554769 -122.437271 11 3557ft 181kts
27-Jan-17 23:57 47.588216 -122.395540 70 1823ft 148kts
27-Jan-17 23:58 47.582423 -122.341404 132 759ft 131kts
27-Jan-17 23:59 47.548084 -122.319903 165 1058ft 137kts
28-Jan-17 00:00 47.510215 -122.310865 176 1243ft 143kts
28-Jan-17 00:01 47.472037 -122.310927 178 648ft 135kts
28-Jan-17 00:02 47.448065 -122.310507 154 439ft 36kts
28-Jan-17 00:03 47.445600 -122.304801 92 439ft 10kts

Navigation Log

Ident Type
1. KSFO Airport
2. TYDYE Fix
3. TRUKN Fix
4. DEDHD Fix
5. KSEA Airport